Time;durP1;ratioP1;P1;durP2;ratioP2;P2;SDS_P1;SDS_P2;PMS_P1;PMS_P2;Temp;Humidity;BMP_temperature;BMP_pressure;BME280_temperature;BME280_humidity;BME280_pressure;Samples;Min_cycle;Max_cycle;Signal;HPM_P1;HPM_P2
2023/05/27 00:00:32;;;;;;;8.27;1.45;;;;;;;7.04;51.17;103080.97;5079196;28;20043;-77
2023/05/27 00:03:00;;;;;;;11.63;1.80;;;;;;;7.01;51.11;103079.22;5078401;28;20216;-76
2023/05/27 00:05:29;;;;;;;8.70;1.45;;;;;;;7.02;50.86;103090.47;5076561;28;20043;-75
2023/05/27 00:07:55;;;;;;;4.50;1.50;;;;;;;6.90;51.22;103086.03;5080243;28;20043;-75
2023/05/27 00:10:23;;;;;;;8.18;2.22;;;;;;;6.77;51.97;103095.41;5087008;28;20263;-74
2023/05/27 00:12:48;;;;;;;18.85;2.17;;;;;;;6.93;51.29;103098.19;5082348;28;20771;-75
2023/05/27 00:15:14;;;;;;;9.98;1.52;;;;;;;6.88;51.70;103096.41;5082869;28;20031;-75
2023/05/27 00:17:42;;;;;;;11.10;1.60;;;;;;;6.97;51.95;103099.97;5078495;28;20237;-75
2023/05/27 00:20:09;;;;;;;11.25;1.55;;;;;;;6.99;52.11;103100.88;5086381;28;20032;-75
2023/05/27 00:22:36;;;;;;;9.77;2.20;;;;;;;7.15;51.59;103097.56;5080315;27;20039;-76
2023/05/27 00:25:02;;;;;;;8.77;1.73;;;;;;;7.21;51.68;103096.75;5101478;27;20107;-75
2023/05/27 00:27:28;;;;;;;10.20;1.55;;;;;;;7.20;51.87;103095.00;5059444;27;20042;-77
2023/05/27 00:29:53;;;;;;;11.07;1.42;;;;;;;7.27;51.99;103086.41;5090961;27;20027;-78
2023/05/27 00:32:19;;;;;;;9.00;1.77;;;;;;;7.38;51.66;103081.28;5062642;27;20055;-74
2023/05/27 00:34:44;;;;;;;12.57;1.45;;;;;;;7.26;51.78;103084.66;5093197;27;20140;-76
2023/05/27 00:37:10;;;;;;;6.07;1.33;;;;;;;7.21;51.72;103083.75;5074830;28;20119;-76
2023/05/27 00:39:38;;;;;;;6.45;1.48;;;;;;;7.26;51.72;103079.47;5073455;28;20158;-79
2023/05/27 00:42:04;;;;;;;8.27;1.58;;;;;;;7.20;52.07;103085.50;5074188;28;20031;-76
2023/05/27 00:44:29;;;;;;;7.45;1.25;;;;;;;7.27;51.95;103081.22;5075539;28;20136;-77
2023/05/27 00:46:55;;;;;;;14.85;2.20;;;;;;;7.21;52.08;103079.41;5079326;28;20306;-77
2023/05/27 00:49:21;;;;;;;11.00;1.85;;;;;;;7.31;51.46;103078.66;5076404;28;20051;-75
2023/05/27 00:51:46;;;;;;;10.00;2.17;;;;;;;7.30;51.78;103070.84;5076231;28;20040;-74
2023/05/27 00:54:12;;;;;;;10.45;2.38;;;;;;;7.19;51.92;103073.31;5065311;28;20039;-75
2023/05/27 00:56:37;;;;;;;11.90;2.50;;;;;;;7.25;51.93;103075.13;5060041;28;20042;-75
2023/05/27 00:59:04;;;;;;;12.80;2.10;;;;;;;7.22;51.64;103072.47;5077747;28;20584;-75
2023/05/27 01:01:29;;;;;;;10.73;1.58;;;;;;;7.09;51.59;103089.72;5060594;28;20034;-76
2023/05/27 01:03:59;;;;;;;7.72;2.00;;;;;;;7.09;51.93;103079.31;5083321;28;20048;-75
2023/05/27 01:07:12;;;;;;;11.55;2.33;;;;;;;7.05;52.06;103078.41;5081003;28;20031;-70
2023/05/27 01:10:03;;;;;;;10.57;1.40;;;;;;;6.96;52.47;103083.50;5078864;27;20519;-69
2023/05/27 01:12:55;;;;;;;12.10;1.90;;;;;;;7.04;52.00;103079.28;5115579;27;20240;-75
2023/05/27 01:15:22;;;;;;;15.95;1.98;;;;;;;6.99;52.01;103074.88;5083027;27;20035;-76
2023/05/27 01:17:48;;;;;;;11.02;1.45;;;;;;;6.90;52.36;103073.91;5085462;28;20484;-75
2023/05/27 01:20:14;;;;;;;17.98;2.45;;;;;;;6.83;52.54;103079.91;5088228;28;20032;-76
2023/05/27 01:22:42;;;;;;;7.93;1.02;;;;;;;6.78;53.08;103065.13;5070508;28;20039;-73
2023/05/27 01:25:10;;;;;;;10.98;1.63;;;;;;;6.88;52.58;103067.81;5105810;27;20144;-73
2023/05/27 01:27:40;;;;;;;10.35;1.63;;;;;;;6.79;52.32;103067.72;5093721;27;20043;-73
2023/05/27 01:30:07;;;;;;;11.25;2.67;;;;;;;6.77;52.54;103061.63;5072687;28;20058;-72
2023/05/27 01:33:00;;;;;;;10.50;1.73;;;;;;;6.78;52.62;103057.34;5086184;27;20567;-71
2023/05/27 01:35:40;;;;;;;10.13;1.63;;;;;;;6.73;52.28;103059.88;5067009;28;20048;-69
2023/05/27 01:38:12;;;;;;;8.43;2.03;;;;;;;6.66;52.49;103056.34;5080338;28;20086;-71
2023/05/27 01:40:43;;;;;;;11.07;1.20;;;;;;;6.74;52.33;103059.00;5085293;27;20595;-71
2023/05/27 01:43:13;;;;;;;9.25;1.90;;;;;;;6.74;52.26;103056.41;5092351;27;20071;-70
2023/05/27 01:45:40;;;;;;;9.40;1.85;;;;;;;6.69;52.44;103058.09;5067750;28;20077;-70
2023/05/27 01:48:06;;;;;;;7.15;1.30;;;;;;;6.73;52.37;103057.28;5081124;27;20073;-76
2023/05/27 01:50:33;;;;;;;8.60;1.50;;;;;;;6.66;52.32;103060.63;5086536;27;20312;-76
2023/05/27 01:52:59;;;;;;;18.65;1.55;;;;;;;6.49;52.37;103053.53;5090234;27;20108;-77
2023/05/27 01:55:25;;;;;;;10.32;2.42;;;;;;;6.52;52.19;103046.63;5082427;27;20116;-76
2023/05/27 01:57:51;;;;;;;14.63;1.55;;;;;;;6.33;52.06;103049.00;5081442;27;20032;-70
2023/05/27 02:00:17;;;;;;;4.95;0.93;;;;;;;6.32;52.43;103048.97;5094976;27;20812;-69
2023/05/27 02:02:43;;;;;;;15.05;1.38;;;;;;;6.37;52.19;103047.31;5077263;28;20051;-66
2023/05/27 02:05:10;;;;;;;7.63;1.02;;;;;;;6.29;52.19;103045.50;5079931;28;20039;-67
2023/05/27 02:07:36;;;;;;;8.18;1.10;;;;;;;6.29;52.04;103045.50;5058319;27;20116;-67
2023/05/27 02:10:02;;;;;;;9.63;1.83;;;;;;;6.18;52.15;103041.00;5079613;28;20093;-73
2023/05/27 02:12:27;;;;;;;12.65;1.85;;;;;;;6.08;52.42;103040.88;5085615;28;20028;-72
2023/05/27 02:14:53;;;;;;;10.75;1.13;;;;;;;6.05;52.48;103035.63;5059714;28;20052;-72
2023/05/27 02:17:20;;;;;;;9.80;1.13;;;;;;;6.12;52.97;103031.38;5078722;28;20039;-71
2023/05/27 02:19:47;;;;;;;5.72;1.65;;;;;;;6.27;52.43;103025.53;5076442;28;20030;-70
2023/05/27 02:22:13;;;;;;;7.38;1.05;;;;;;;6.20;52.24;103036.69;5080381;28;20076;-71
2023/05/27 02:24:38;;;;;;;8.75;1.65;;;;;;;6.24;52.13;103036.75;5056698;28;20394;-71
2023/05/27 02:27:05;;;;;;;10.40;1.98;;;;;;;6.20;52.28;103042.75;5079148;28;20049;-72
2023/05/27 02:29:31;;;;;;;9.68;2.03;;;;;;;6.20;52.90;103037.56;5083005;27;20098;-72
2023/05/27 02:31:57;;;;;;;12.80;1.27;;;;;;;6.38;52.88;103046.47;5075637;28;20657;-72
2023/05/27 02:34:24;;;;;;;9.75;1.92;;;;;;;6.45;52.92;103040.50;5107914;27;20117;-70
2023/05/27 02:36:50;;;;;;;11.38;2.47;;;;;;;6.53;52.87;103037.97;5083711;27;20222;-72
2023/05/27 02:39:16;;;;;;;13.38;2.08;;;;;;;6.61;52.67;103041.53;5083979;28;20040;-73
2023/05/27 02:41:43;;;;;;;8.57;1.73;;;;;;;6.79;51.83;103039.13;5111791;27;20032;-74
2023/05/27 02:44:10;;;;;;;7.88;1.67;;;;;;;6.76;52.25;103039.09;5071852;27;20144;-74
2023/05/27 02:46:35;;;;;;;6.10;1.63;;;;;;;6.77;51.86;103040.84;5078765;28;20044;-73
2023/05/27 02:49:01;;;;;;;9.02;1.95;;;;;;;6.65;52.16;103039.00;5084781;28;20036;-74
2023/05/27 02:51:28;;;;;;;11.38;1.80;;;;;;;6.68;52.45;103039.00;5112612;27;20469;-72
2023/05/27 02:53:54;;;;;;;16.10;1.77;;;;;;;6.73;52.27;103036.50;5077014;27;20035;-72
2023/05/27 02:56:19;;;;;;;7.75;1.77;;;;;;;6.68;51.86;103039.00;5086098;28;20031;-73
2023/05/27 02:58:46;;;;;;;7.72;1.60;;;;;;;6.68;52.00;103039.00;5059658;28;20427;-68
2023/05/27 03:01:11;;;;;;;14.38;2.78;;;;;;;6.56;51.79;103038.03;5080890;28;20151;-66
2023/05/27 03:03:37;;;;;;;6.95;1.50;;;;;;;6.48;52.17;103037.91;5071888;27;20036;-69
2023/05/27 03:06:03;;;;;;;8.13;2.20;;;;;;;6.50;52.67;103042.28;5060523;28;20075;-68
2023/05/27 03:08:29;;;;;;;8.32;1.67;;;;;;;6.60;51.98;103034.59;5076820;28;20105;-68
2023/05/27 03:10:55;;;;;;;12.55;2.88;;;;;;;6.58;51.82;103036.31;5076976;27;20027;-69
2023/05/27 03:13:20;;;;;;;5.57;1.02;;;;;;;6.47;51.89;103041.38;5079372;28;20149;-74
2023/05/27 03:15:47;;;;;;;9.40;2.25;;;;;;;6.44;52.25;103039.63;5078046;28;20523;-75
2023/05/27 03:18:12;;;;;;;16.98;1.92;;;;;;;6.49;52.26;103029.28;5080598;27;20043;-73
2023/05/27 03:20:38;;;;;;;7.00;1.52;;;;;;;6.48;51.90;103036.22;5076965;27;20400;-74
2023/05/27 03:23:04;;;;;;;7.03;1.23;;;;;;;6.42;52.29;103040.47;5066640;27;20047;-72
2023/05/27 03:25:29;;;;;;;9.07;2.13;;;;;;;6.34;52.14;103037.75;5079345;28;20063;-75
2023/05/27 03:27:58;;;;;;;8.98;1.65;;;;;;;6.24;52.54;103026.38;5063158;28;20038;-69
2023/05/27 03:30:23;;;;;;;8.73;1.80;;;;;;;6.18;52.57;103023.69;5077775;28;20061;-71
2023/05/27 03:32:51;;;;;;;11.20;2.05;;;;;;;6.39;52.62;103022.22;5107392;27;20036;-72
2023/05/27 03:35:23;;;;;;;8.13;1.60;;;;;;;6.43;52.34;103019.69;5078553;28;20036;-72
2023/05/27 03:37:49;;;;;;;8.77;1.45;;;;;;;6.45;52.10;103020.56;5061373;28;20038;-71
2023/05/27 03:40:14;;;;;;;10.18;1.67;;;;;;;6.38;52.35;103033.47;5080393;28;20030;-72
2023/05/27 03:42:40;;;;;;;10.68;2.00;;;;;;;6.42;52.20;103023.16;5084067;28;20070;-76
2023/05/27 03:45:06;;;;;;;15.38;2.95;;;;;;;6.36;51.89;103024.78;5079570;28;20105;-76
2023/05/27 03:47:34;;;;;;;12.55;2.08;;;;;;;6.29;52.14;103031.66;5090679;27;20125;-76
2023/05/27 03:50:02;;;;;;;12.77;2.38;;;;;;;6.27;52.57;103035.91;5088256;28;20051;-76
2023/05/27 03:52:29;;;;;;;7.72;1.83;;;;;;;6.37;52.30;103022.19;5077930;27;20359;-76
2023/05/27 03:54:55;;;;;;;4.80;1.63;;;;;;;6.61;52.05;103031.16;5102061;27;20026;-76
2023/05/27 03:57:20;;;;;;;5.00;1.70;;;;;;;6.59;51.82;103030.25;5091005;28;20702;-77
2023/05/27 03:59:46;;;;;;;16.23;2.67;;;;;;;6.70;51.98;103037.31;5088392;28;20108;-76
2023/05/27 04:02:12;;;;;;;5.15;2.20;;;;;;;6.86;51.98;103021.88;5088628;28;20625;-76
2023/05/27 04:04:37;;;;;;;11.95;2.35;;;;;;;6.86;51.75;103022.75;5073562;28;20028;-76
2023/05/27 04:07:03;;;;;;;7.28;3.22;;;;;;;6.96;51.71;103026.31;5084218;28;20027;-76
2023/05/27 04:09:28;;;;;;;7.05;2.25;;;;;;;7.02;51.82;103018.59;5082392;28;20710;-76
2023/05/27 04:11:54;;;;;;;8.85;2.42;;;;;;;7.15;51.47;103018.66;5060854;28;20419;-68
2023/05/27 04:14:22;;;;;;;9.15;2.13;;;;;;;7.13;51.26;103016.06;5075293;28;20047;-70
2023/05/27 04:16:48;;;;;;;11.57;2.20;;;;;;;7.18;50.89;103023.91;5079145;28;20034;-72
2023/05/27 04:19:13;;;;;;;5.35;1.83;;;;;;;7.30;51.51;103024.00;5076515;27;20116;-74
2023/05/27 04:21:39;;;;;;;13.45;2.72;;;;;;;7.40;51.05;103015.44;5078982;28;20031;-74
2023/05/27 04:24:05;;;;;;;9.20;2.30;;;;;;;7.52;51.19;103019.84;5067687;28;20159;-76
2023/05/27 04:26:32;;;;;;;9.77;2.05;;;;;;;7.74;50.52;103026.09;5060766;28;20055;-75
2023/05/27 04:29:01;;;;;;;13.18;2.75;;;;;;;7.87;50.33;103021.81;5080301;27;20123;-75
2023/05/27 04:31:30;;;;;;;10.82;2.30;;;;;;;8.01;49.89;103019.31;5063726;28;20023;-74
2023/05/27 04:34:02;;;;;;;5.95;1.73;;;;;;;8.04;50.04;103020.19;5083591;28;20096;-75
2023/05/27 04:36:33;;;;;;;15.75;2.20;;;;;;;8.22;49.97;103021.13;5077450;28;20032;-75
2023/05/27 04:39:11;;;;;;;11.93;2.23;;;;;;;8.34;49.27;103019.44;5064702;28;20094;-74
2023/05/27 04:41:41;;;;;;;11.30;2.30;;;;;;;8.43;49.59;103013.41;5063416;28;20281;-73
2023/05/27 04:44:22;;;;;;;12.15;2.05;;;;;;;8.58;48.62;103012.56;5079138;28;20832;-72
2023/05/27 04:46:49;;;;;;;11.60;3.03;;;;;;;8.61;49.33;103016.94;5097650;27;20032;-75
2023/05/27 04:49:15;;;;;;;9.25;2.10;;;;;;;8.75;49.08;103020.47;5086519;27;20413;-73
2023/05/27 04:51:41;;;;;;;18.00;2.95;;;;;;;8.88;48.68;103011.78;5086669;28;21055;-73
2023/05/27 04:54:07;;;;;;;16.70;2.63;;;;;;;9.09;48.55;103017.88;5080931;27;20059;-71
2023/05/27 04:56:33;;;;;;;13.20;2.72;;;;;;;9.53;48.41;103023.09;5085629;27;20028;-71
2023/05/27 04:58:59;;;;;;;14.73;2.47;;;;;;;11.08;45.38;103023.31;5088342;27;20038;-73
2023/05/27 05:01:58;;;;;;;13.05;2.58;;;;;;;12.44;42.67;103018.38;5071268;28;20036;-71
2023/05/27 05:04:25;;;;;;;11.38;1.90;;;;;;;11.56;42.78;103015.91;5111079;27;20032;-72
2023/05/27 05:06:57;;;;;;;12.30;2.15;;;;;;;11.16;44.30;103016.28;5081339;28;20258;-70
2023/05/27 05:09:24;;;;;;;11.50;1.95;;;;;;;11.37;43.42;103016.06;5108384;27;20945;-71
2023/05/27 05:11:50;;;;;;;11.85;2.67;;;;;;;11.25;43.27;103019.66;5101889;27;20127;-69
2023/05/27 05:14:17;;;;;;;9.10;2.20;;;;;;;11.20;44.52;103018.00;5084798;27;20120;-69
2023/05/27 05:16:44;;;;;;;12.55;2.78;;;;;;;11.40;43.74;103013.44;5080769;28;20416;-73
2023/05/27 05:19:09;;;;;;;9.23;1.88;;;;;;;12.47;41.72;103024.47;5062109;28;20046;-76
2023/05/27 05:21:37;;;;;;;11.75;2.28;;;;;;;12.65;42.45;103018.09;5109945;27;20027;-70
2023/05/27 05:24:05;;;;;;;12.60;1.95;;;;;;;13.16;40.83;103006.81;5077475;28;20051;-71
2023/05/27 05:26:30;;;;;;;8.10;2.10;;;;;;;14.49;38.26;103013.88;5112064;27;20836;-71
2023/05/27 05:28:58;;;;;;;11.77;1.90;;;;;;;15.33;36.04;103007.47;5093572;27;20085;-72
2023/05/27 05:31:23;;;;;;;17.10;2.33;;;;;;;15.24;35.11;103002.44;5082628;28;20254;-75
2023/05/27 05:33:54;;;;;;;12.43;2.30;;;;;;;15.60;35.08;102995.34;5078098;28;20063;-75
2023/05/27 05:36:21;;;;;;;10.25;2.25;;;;;;;15.48;35.57;102986.00;5081768;27;20153;-73
2023/05/27 05:39:03;;;;;;;12.70;2.10;;;;;;;15.73;34.88;102990.59;5109689;27;20032;-73
2023/05/27 05:41:29;;;;;;;15.57;2.92;;;;;;;16.32;34.88;102990.59;5086806;27;20510;-69
2023/05/27 05:43:56;;;;;;;8.43;1.35;;;;;;;17.29;33.22;102976.88;5075979;27;20043;-67
2023/05/27 05:46:22;;;;;;;11.05;2.08;;;;;;;18.70;30.48;102970.66;5076589;27;20081;-69
2023/05/27 05:48:52;;;;;;;17.42;2.67;;;;;;;19.06;30.24;102970.06;5078462;27;20066;-69
2023/05/27 05:51:24;;;;;;;14.00;1.73;;;;;;;17.79;30.10;102978.63;5074633;27;20051;-69
2023/05/27 05:53:55;;;;;;;12.45;1.77;;;;;;;16.55;32.93;102971.38;5073398;27;20048;-67
2023/05/27 05:56:21;;;;;;;9.90;1.65;;;;;;;17.18;31.33;102976.38;5075994;27;20040;-68
2023/05/27 05:58:47;;;;;;;14.60;2.63;;;;;;;16.98;32.22;102975.31;5075764;27;20031;-69
2023/05/27 06:01:15;;;;;;;7.53;1.45;;;;;;;17.23;31.97;102977.94;5075316;27;20484;-67
2023/05/27 06:03:42;;;;;;;14.40;2.20;;;;;;;17.11;32.03;102978.38;5055398;27;20048;-68
2023/05/27 06:06:17;;;;;;;12.00;2.08;;;;;;;17.02;31.69;102976.03;5067106;27;20032;-69
2023/05/27 06:09:15;;;;;;;11.73;1.85;;;;;;;16.37;32.97;102975.47;5074002;27;20524;-68
2023/05/27 06:11:41;;;;;;;5.80;1.73;;;;;;;17.36;31.32;102990.75;5085773;27;20047;-70
2023/05/27 06:14:07;;;;;;;12.18;2.03;;;;;;;17.96;31.24;102992.09;5082230;27;20496;-67
2023/05/27 06:16:35;;;;;;;15.95;2.50;;;;;;;18.23;30.02;102978.75;5078723;27;20043;-67
2023/05/27 06:19:02;;;;;;;16.00;2.30;;;;;;;19.09;27.80;102981.38;5076567;27;20398;-69
2023/05/27 06:21:30;;;;;;;14.35;2.33;;;;;;;19.33;27.31;102977.75;5078150;27;20028;-69
2023/05/27 06:24:34;;;;;;;9.95;2.50;;;;;;;19.28;27.25;102981.44;5076304;28;20427;-69
2023/05/27 06:27:25;;;;;;;13.10;1.55;;;;;;;19.48;27.14;102982.38;5075041;27;20043;-68
2023/05/27 06:29:51;;;;;;;6.57;1.50;;;;;;;18.94;27.56;102973.22;5096842;27;20108;-69
2023/05/27 06:32:26;;;;;;;12.52;1.85;;;;;;;19.18;28.00;102980.13;5107541;27;20028;-68
2023/05/27 06:34:52;;;;;;;9.85;1.17;;;;;;;19.78;26.92;102979.28;5076136;27;20057;-69
2023/05/27 06:37:18;;;;;;;10.90;1.63;;;;;;;19.61;26.83;102980.88;5075361;27;20412;-69
2023/05/27 06:39:43;;;;;;;9.70;2.05;;;;;;;20.35;26.64;102979.25;5078661;27;20087;-69
2023/05/27 06:42:09;;;;;;;10.57;2.15;;;;;;;20.39;25.41;102972.84;5078186;27;20617;-67
2023/05/27 06:44:50;;;;;;;15.10;2.30;;;;;;;19.89;26.84;102974.31;5075339;27;20527;-69
2023/05/27 06:47:20;;;;;;;9.02;2.15;;;;;;;19.80;26.25;102972.97;5073820;27;20142;-69
2023/05/27 06:49:49;;;;;;;9.43;1.85;;;;;;;20.37;26.10;102972.94;5085459;27;20653;-68
2023/05/27 06:52:14;;;;;;;9.95;2.03;;;;;;;21.56;24.83;102975.78;5071856;27;20032;-68
2023/05/27 06:55:07;;;;;;;8.75;1.70;;;;;;;21.67;23.52;102969.88;5062240;28;20039;-70
2023/05/27 06:57:58;;;;;;;10.45;1.45;;;;;;;22.55;23.05;102974.66;5066318;27;20036;-70
2023/05/27 07:00:43;;;;;;;10.18;1.88;;;;;;;22.82;22.42;102971.34;5079470;27;20092;-70
2023/05/27 07:03:22;;;;;;;12.73;1.65;;;;;;;23.02;21.45;102967.47;5068166;27;20576;-70
2023/05/27 07:05:49;;;;;;;6.13;1.80;;;;;;;22.62;21.74;102972.50;5091320;27;20267;-69
2023/05/27 07:08:17;;;;;;;8.55;1.60;;;;;;;22.74;21.83;102973.59;5072893;27;20043;-68
2023/05/27 07:10:50;;;;;;;6.30;2.03;;;;;;;22.56;22.63;102978.16;5084441;27;20024;-67
2023/05/27 07:13:18;;;;;;;8.00;2.63;;;;;;;22.96;21.21;102974.06;5074389;27;20043;-67
2023/05/27 07:15:48;;;;;;;9.40;1.65;;;;;;;22.11;23.14;102978.06;5075480;27;20031;-67
2023/05/27 07:18:14;;;;;;;15.77;1.83;;;;;;;21.44;23.35;102976.38;5078644;27;20039;-70
2023/05/27 07:20:43;;;;;;;11.85;2.05;;;;;;;22.22;22.73;102968.63;5059930;27;20059;-68
2023/05/27 07:23:11;;;;;;;9.70;1.35;;;;;;;22.49;23.00;102972.34;5077961;27;20043;-70
2023/05/27 07:25:39;;;;;;;12.10;2.22;;;;;;;22.62;21.67;102960.97;5075569;27;20075;-69
2023/05/27 07:28:04;;;;;;;8.45;1.67;;;;;;;22.98;21.04;102957.94;5084528;27;20673;-69
2023/05/27 07:30:33;;;;;;;13.57;1.65;;;;;;;23.34;21.30;102960.22;5078040;27;20741;-68
2023/05/27 07:33:02;;;;;;;6.13;1.52;;;;;;;23.50;20.90;102959.25;5065434;28;20059;-69
2023/05/27 07:35:28;;;;;;;7.97;2.30;;;;;;;24.09;21.77;102957.25;5080743;27;20035;-70
2023/05/27 07:37:54;;;;;;;10.68;1.80;;;;;;;23.62;20.85;102955.81;5076579;28;20656;-70
2023/05/27 07:40:19;;;;;;;7.57;1.23;;;;;;;23.24;21.53;102958.19;5077289;27;20035;-70
2023/05/27 07:42:45;;;;;;;7.40;1.48;;;;;;;23.95;21.36;102947.47;5075690;28;20042;-70
2023/05/27 07:45:11;;;;;;;8.70;1.83;;;;;;;25.04;19.27;102942.03;5107775;27;20040;-69
2023/05/27 07:47:38;;;;;;;9.82;1.42;;;;;;;25.35;19.93;102946.06;5056067;28;20035;-70
2023/05/27 07:50:04;;;;;;;5.97;1.55;;;;;;;25.30;20.18;102939.31;5084293;27;20108;-67
2023/05/27 07:52:35;;;;;;;9.90;2.78;;;;;;;24.35;20.60;102944.00;5066655;27;20047;-70
2023/05/27 07:55:08;;;;;;;8.68;2.22;;;;;;;24.36;20.65;102943.03;5063336;28;20035;-70
2023/05/27 07:57:35;;;;;;;10.77;2.10;;;;;;;23.95;21.20;102949.31;5063821;27;20047;-68
2023/05/27 08:00:03;;;;;;;7.78;1.60;;;;;;;23.77;21.06;102941.50;5078563;28;20040;-69
2023/05/27 08:02:49;;;;;;;11.27;2.22;;;;;;;24.48;20.83;102931.56;5075801;28;20040;-70
2023/05/27 08:05:17;;;;;;;6.28;1.27;;;;;;;24.86;20.22;102930.72;5073711;28;20710;-70
2023/05/27 08:08:15;;;;;;;11.60;1.85;;;;;;;23.78;20.49;102927.16;5049237;28;20060;-70
2023/05/27 08:11:09;;;;;;;8.13;1.85;;;;;;;24.59;20.35;102921.00;5074514;28;20048;-69
2023/05/27 08:14:00;;;;;;;8.80;1.20;;;;;;;25.75;18.34;102918.25;5050407;28;20040;-68
2023/05/27 08:16:46;;;;;;;6.20;1.60;;;;;;;25.40;19.54;102914.47;5077289;28;20614;-69
2023/05/27 08:19:20;;;;;;;10.13;2.15;;;;;;;24.92;20.29;102916.09;5061906;27;20049;-70
2023/05/27 08:22:08;;;;;;;9.77;1.35;;;;;;;23.90;20.47;102912.22;5078893;28;20044;-70
2023/05/27 08:24:54;;;;;;;8.23;1.60;;;;;;;24.76;20.50;102913.63;5082154;28;20054;-70
2023/05/27 08:27:50;;;;;;;12.23;1.85;;;;;;;24.84;21.01;102900.59;5086288;27;20282;-70
2023/05/27 08:30:38;;;;;;;14.27;2.47;;;;;;;25.07;20.16;102906.19;5076620;28;20401;-69
2023/05/27 08:33:08;;;;;;;8.30;1.83;;;;;;;24.52;20.26;102895.63;5078133;27;20097;-69
2023/05/27 08:35:34;;;;;;;11.13;1.88;;;;;;;23.67;21.08;102894.13;5078941;27;20387;-68
2023/05/27 08:38:03;;;;;;;8.25;1.90;;;;;;;24.75;20.91;102887.84;5063977;27;20278;-68
2023/05/27 08:40:33;;;;;;;11.27;1.73;;;;;;;25.16;20.64;102887.63;5083940;27;20496;-70
2023/05/27 08:42:59;;;;;;;10.68;1.67;;;;;;;24.94;19.67;102887.41;5086299;27;20111;-70
2023/05/27 08:45:26;;;;;;;14.38;1.98;;;;;;;25.12;20.86;102888.81;5093968;27;20373;-68
2023/05/27 08:47:56;;;;;;;9.85;1.85;;;;;;;24.48;21.00;102877.22;5098419;27;20058;-69
2023/05/27 08:50:28;;;;;;;10.15;2.10;;;;;;;24.60;20.82;102879.91;5077155;27;20032;-68
2023/05/27 08:52:54;;;;;;;13.93;2.17;;;;;;;24.61;21.24;102868.25;5058441;27;20050;-70
2023/05/27 08:55:22;;;;;;;6.85;1.90;;;;;;;24.19;21.42;102872.88;5096319;27;20517;-70
2023/05/27 08:57:54;;;;;;;13.02;1.88;;;;;;;22.58;23.62;102870.56;5107405;27;20032;-70
2023/05/27 09:00:20;;;;;;;13.25;1.98;;;;;;;22.10;24.90;102874.31;5077913;28;20039;-70
2023/05/27 09:02:50;;;;;;;10.68;2.55;;;;;;;23.11;22.45;102864.72;5077718;27;20055;-70
2023/05/27 09:05:19;;;;;;;9.20;2.22;;;;;;;24.42;22.04;102873.19;5069009;28;20567;-70
2023/05/27 09:07:45;;;;;;;7.43;2.00;;;;;;;23.10;22.25;102874.53;5075150;27;20039;-70
2023/05/27 09:10:10;;;;;;;13.18;2.58;;;;;;;21.45;24.75;102871.72;5074046;28;20043;-70
2023/05/27 09:12:36;;;;;;;10.00;2.25;;;;;;;19.56;27.51;102873.28;5075270;27;20088;-69
2023/05/27 09:15:05;;;;;;;11.48;2.10;;;;;;;20.79;26.97;102870.75;5075139;27;20682;-69
2023/05/27 09:17:31;;;;;;;11.68;1.98;;;;;;;21.12;26.19;102864.63;5069628;27;20042;-68
2023/05/27 09:19:57;;;;;;;7.38;1.85;;;;;;;20.86;25.63;102863.34;5070397;28;20039;-69
2023/05/27 09:22:31;;;;;;;8.68;2.20;;;;;;;21.63;25.37;102867.22;5071049;27;20424;-69
2023/05/27 09:24:57;;;;;;;9.75;2.13;;;;;;;21.98;25.50;102865.22;5080906;27;20466;-70
2023/05/27 09:27:28;;;;;;;6.85;1.83;;;;;;;22.48;24.28;102855.22;5073997;28;20050;-70
2023/05/27 09:29:59;;;;;;;12.15;2.30;;;;;;;21.84;25.28;102867.78;5076366;28;20367;-69
2023/05/27 09:32:27;;;;;;;12.20;2.42;;;;;;;21.33;25.28;102867.91;5072202;27;20038;-70
2023/05/27 09:34:54;;;;;;;11.13;2.70;;;;;;;20.47;26.14;102857.34;5075431;28;20070;-70
2023/05/27 09:37:20;;;;;;;12.18;2.45;;;;;;;20.32;26.94;102858.13;5071574;28;20742;-69
2023/05/27 09:39:46;;;;;;;9.82;2.30;;;;;;;19.87;26.27;102862.94;5082352;28;20032;-69
2023/05/27 09:42:13;;;;;;;8.88;2.55;;;;;;;19.46;26.55;102856.94;5075811;28;20031;-68
2023/05/27 09:44:40;;;;;;;11.43;2.50;;;;;;;19.62;27.77;102859.75;5075944;28;20575;-69
2023/05/27 09:47:09;;;;;;;9.32;1.95;;;;;;;20.38;26.11;102862.28;5072728;28;20169;-69
2023/05/27 09:49:37;;;;;;;7.57;3.00;;;;;;;20.54;26.08;102852.56;5071715;27;20051;-70
2023/05/27 09:52:05;;;;;;;10.23;1.95;;;;;;;19.91;27.58;102847.72;5066393;28;20131;-69
2023/05/27 09:54:32;;;;;;;7.63;2.83;;;;;;;20.11;26.93;102850.25;5073025;27;20046;-69
2023/05/27 09:56:58;;;;;;;12.05;3.03;;;;;;;19.42;27.46;102856.19;5074379;28;20040;-68
2023/05/27 09:59:26;;;;;;;11.85;2.88;;;;;;;19.66;27.15;102845.41;5073955;27;20047;-69
2023/05/27 10:01:54;;;;;;;14.35;2.50;;;;;;;20.13;27.41;102847.53;5075830;28;20567;-70
2023/05/27 10:04:20;;;;;;;15.88;3.50;;;;;;;20.62;26.56;102841.53;5071613;27;20051;-70
2023/05/27 10:06:54;;;;;;;11.18;2.88;;;;;;;19.47;27.27;102834.78;5075439;27;20378;-69
2023/05/27 10:09:28;;;;;;;13.27;2.55;;;;;;;18.85;29.26;102826.97;5069292;27;20067;-69
2023/05/27 10:11:55;;;;;;;16.63;3.45;;;;;;;17.87;30.43;102831.06;5071691;28;20031;-69
2023/05/27 10:14:20;;;;;;;14.95;2.80;;;;;;;18.35;30.76;102831.78;5070788;28;20055;-69
2023/05/27 10:17:00;;;;;;;12.05;2.63;;;;;;;18.62;29.27;102827.09;5072375;28;20044;-69
2023/05/27 10:19:26;;;;;;;17.15;2.42;;;;;;;19.18;28.99;102813.13;5079741;28;20036;-69
2023/05/27 10:21:53;;;;;;;17.75;3.05;;;;;;;19.64;28.83;102815.44;5073232;28;20043;-69
2023/05/27 10:24:18;;;;;;;15.68;3.33;;;;;;;20.42;28.35;102821.34;5093269;27;20683;-72
2023/05/27 10:26:45;;;;;;;13.10;3.22;;;;;;;20.91;27.67;102813.50;5070500;28;20024;-69
2023/05/27 10:29:13;;;;;;;8.93;1.95;;;;;;;20.73;27.31;102810.84;5073169;28;20085;-68
2023/05/27 10:31:49;;;;;;;10.65;2.55;;;;;;;20.77;26.41;102805.34;5068708;28;20035;-70
2023/05/27 10:34:15;;;;;;;9.40;2.65;;;;;;;20.64;26.23;102811.31;5071159;27;20275;-68
2023/05/27 10:36:44;;;;;;;8.25;2.40;;;;;;;20.30;26.90;102813.03;5074233;28;20123;-68
2023/05/27 10:39:18;;;;;;;13.32;3.15;;;;;;;20.38;27.14;102799.38;5075107;28;20089;-69
2023/05/27 10:41:50;;;;;;;10.50;2.42;;;;;;;21.13;27.19;102797.22;5073657;28;20093;-69
2023/05/27 10:44:32;;;;;;;16.05;3.20;;;;;;;21.20;25.62;102793.28;5063029;28;20091;-67
2023/05/27 10:47:12;;;;;;;9.50;2.45;;;;;;;20.86;26.12;102794.25;5083021;28;20035;-69
2023/05/27 10:49:39;;;;;;;15.40;2.80;;;;;;;20.42;26.96;102784.16;5068663;28;20040;-71
2023/05/27 10:52:12;;;;;;;13.30;3.00;;;;;;;20.67;27.83;102779.28;5078993;28;20035;-69
2023/05/27 10:54:45;;;;;;;14.48;3.17;;;;;;;20.47;27.01;102788.28;5105176;27;20067;-69
2023/05/27 10:57:11;;;;;;;11.05;2.60;;;;;;;20.86;26.53;102771.19;5084769;28;20046;-69
2023/05/27 10:59:39;;;;;;;13.48;2.85;;;;;;;21.24;26.20;102767.38;5065725;27;21343;-69
2023/05/27 11:02:11;;;;;;;5.75;2.15;;;;;;;20.66;26.88;102766.94;5078343;28;20043;-70
2023/05/27 11:04:37;;;;;;;13.10;3.20;;;;;;;20.04;27.72;102773.69;5088939;27;20044;-69
2023/05/27 11:07:05;;;;;;;8.68;3.40;;;;;;;20.23;26.88;102768.31;5076751;28;20040;-70
2023/05/27 11:09:52;;;;;;;15.93;4.53;;;;;;;20.48;27.36;102768.75;5073043;28;20424;-70
2023/05/27 11:12:19;;;;;;;8.65;3.35;;;;;;;20.72;26.31;102773.72;5072486;28;20086;-69
2023/05/27 11:14:46;;;;;;;12.35;2.92;;;;;;;20.85;27.42;102769.47;5076718;28;20484;-71
2023/05/27 11:17:15;;;;;;;12.90;3.10;;;;;;;20.73;27.71;102752.38;5077154;28;20042;-70
2023/05/27 11:19:42;;;;;;;11.50;3.38;;;;;;;21.52;26.33;102756.06;5073963;28;20408;-70
2023/05/27 11:22:08;;;;;;;17.13;3.55;;;;;;;21.58;26.17;102749.53;5076168;28;20076;-69
2023/05/27 11:24:36;;;;;;;14.93;3.08;;;;;;;21.46;24.95;102743.06;5068229;28;20181;-69
2023/05/27 11:27:15;;;;;;;10.75;2.97;;;;;;;21.33;26.01;102742.91;5075429;28;20664;-70
2023/05/27 11:29:51;;;;;;;13.50;3.25;;;;;;;21.23;27.17;102739.06;5071073;28;20078;-70
2023/05/27 11:32:17;;;;;;;13.00;3.58;;;;;;;20.92;26.13;102738.97;5089683;27;20062;-70
2023/05/27 11:34:45;;;;;;;8.85;3.42;;;;;;;21.22;25.57;102732.03;5074426;28;20223;-70